Time;durP1;ratioP1;P1;durP2;ratioP2;P2;SDS_P1;SDS_P2;PMS_P1;PMS_P2;Temp;Humidity;BMP_temperature;BMP_pressure;BME280_temperature;BME280_humidity;BME280_pressure;Samples;Min_cycle;Max_cycle;Signal;HPM_P1;HPM_P2
2022/05/23 00:02:13;;;;;;;7.80;3.50;;;;;;;18.89;64.82;95251.13;10412002;27;98679;-68
2022/05/23 00:07:25;;;;;;;7.10;3.07;;;;;;;18.78;64.77;95249.22;10418117;27;96788;-68
2022/05/23 00:12:28;;;;;;;5.43;3.05;;;;;;;18.74;64.56;95237.44;10411638;27;96869;-68
2022/05/23 00:17:31;;;;;;;7.30;3.60;;;;;;;18.70;65.34;95226.50;10411990;27;98760;-69
2022/05/23 00:22:37;;;;;;;9.07;3.65;;;;;;;18.63;65.24;95225.78;10409484;27;99096;-68
2022/05/23 00:27:42;;;;;;;6.82;3.70;;;;;;;18.74;64.60;95222.41;10414555;27;97803;-68
2022/05/23 00:38:07;;;;;;;9.85;3.10;;;;;;;19.11;63.80;95213.59;10408634;27;98947;-68
2022/05/23 00:43:16;;;;;;;8.95;3.28;;;;;;;19.19;63.68;95205.28;10414503;27;96802;-68
2022/05/23 00:48:23;;;;;;;9.52;3.88;;;;;;;19.23;63.67;95196.69;10412098;27;97840;-68
2022/05/23 00:53:31;;;;;;;10.00;3.85;;;;;;;18.99;63.84;95177.28;10403871;27;97629;-68
2022/05/23 00:58:38;;;;;;;7.30;3.25;;;;;;;18.64;65.67;95185.09;10412565;27;99412;-70
2022/05/23 01:03:40;;;;;;;9.60;3.60;;;;;;;18.62;65.26;95192.41;10411512;27;98426;-68
2022/05/23 01:08:46;;;;;;;9.27;3.75;;;;;;;18.79;65.02;95192.59;10411571;27;97581;-68
2022/05/23 01:13:53;;;;;;;8.27;3.70;;;;;;;18.93;65.12;95203.84;10410005;27;100530;-68
2022/05/23 01:18:56;;;;;;;9.05;3.42;;;;;;;18.92;64.90;95215.47;10410550;27;99171;-68
2022/05/23 01:24:08;;;;;;;8.48;3.55;;;;;;;18.80;65.49;95195.03;10408540;27;98821;-68
2022/05/23 01:29:14;;;;;;;7.95;3.22;;;;;;;18.76;65.84;95204.47;10411160;27;97707;-68
2022/05/23 01:34:17;;;;;;;8.68;3.20;;;;;;;18.78;65.10;95206.88;10412334;27;97751;-68
2022/05/23 01:39:20;;;;;;;9.15;3.17;;;;;;;18.86;65.69;95199.47;10410911;27;96836;-68
2022/05/23 01:44:25;;;;;;;8.20;3.17;;;;;;;18.95;64.69;95196.47;10409938;27;98774;-68
2022/05/23 01:49:28;;;;;;;;;;;;;;;18.97;65.07;95199.72;10413548;27;99438;-69
2022/05/23 01:54:31;;;;;;;6.40;3.10;;;;;;;18.84;65.33;95198.81;10409761;27;99829;-68
2022/05/23 02:04:55;;;;;;;9.32;3.47;;;;;;;18.68;66.35;95149.22;10410730;27;99366;-68
2022/05/23 02:09:58;;;;;;;12.05;3.63;;;;;;;18.54;66.80;95169.75;10408890;27;97790;-68
2022/05/23 02:15:03;;;;;;;8.15;3.33;;;;;;;18.19;67.29;95167.75;10407461;27;97168;-69
2022/05/23 02:20:06;;;;;;;;;;;;;;;18.15;66.66;95171.03;10415066;27;100483;-68
2022/05/23 02:25:10;;;;;;;7.93;3.17;;;;;;;18.17;67.24;95176.91;10411086;27;96819;-68
2022/05/23 02:30:15;;;;;;;10.07;3.40;;;;;;;18.15;66.84;95161.28;10410044;27;97839;-68
2022/05/23 02:35:19;;;;;;;8.60;3.50;;;;;;;18.15;68.08;95155.19;10417220;27;97031;-68
2022/05/23 02:40:22;;;;;;;6.45;3.10;;;;;;;18.01;67.94;95150.06;10412961;27;96868;-68
2022/05/23 02:45:27;;;;;;;11.48;3.97;;;;;;;17.73;69.11;95151.34;10409536;27;98128;-68
2022/05/23 02:50:30;;;;;;;6.75;3.72;;;;;;;17.64;68.77;95142.06;10406410;27;100183;-68
2022/05/23 02:55:33;;;;;;;13.98;3.97;;;;;;;17.71;68.15;95132.25;10406619;27;97126;-68
2022/05/23 03:00:37;;;;;;;8.07;3.20;;;;;;;17.73;68.04;95130.22;10408529;27;97731;-67
2022/05/23 03:05:43;;;;;;;6.75;3.38;;;;;;;17.79;68.12;95128.53;10406694;27;98728;-68
2022/05/23 03:10:46;;;;;;;9.88;4.47;;;;;;;17.60;68.95;95133.00;10405724;27;98054;-68
2022/05/23 03:15:50;;;;;;;7.57;3.60;;;;;;;17.47;69.21;95128.63;10410515;27;96956;-68
2022/05/23 03:20:57;;;;;;;6.55;3.50;;;;;;;17.18;69.88;95130.13;10404495;27;99757;-69
2022/05/23 03:31:31;;;;;;;9.95;3.63;;;;;;;16.93;70.73;95130.91;10412282;27;96976;-68
2022/05/23 03:36:33;;;;;;;6.18;3.28;;;;;;;17.03;70.59;95148.91;10414020;27;99170;-68
2022/05/23 03:41:38;;;;;;;7.38;3.85;;;;;;;16.87;70.99;95139.69;10411674;27;98896;-68
2022/05/23 03:46:42;;;;;;;9.73;4.32;;;;;;;16.65;71.37;95133.94;10412101;27;98828;-69
2022/05/23 03:51:45;;;;;;;;;;;;;;;16.63;71.01;95128.88;10413813;27;99412;-68
2022/05/23 03:56:48;;;;;;;5.55;3.10;;;;;;;16.78;69.82;95135.72;10414481;27;99372;-68
2022/05/23 04:01:53;;;;;;;9.38;3.65;;;;;;;16.89;69.75;95116.56;10414260;27;98594;-68
2022/05/23 04:07:00;;;;;;;8.90;3.83;;;;;;;16.90;69.75;95144.56;10413240;27;99288;-68
2022/05/23 04:12:03;;;;;;;9.57;3.63;;;;;;;16.98;70.25;95125.81;10409653;27;97051;-69
2022/05/23 04:17:08;;;;;;;8.80;3.67;;;;;;;16.81;70.72;95127.34;10416162;27;98040;-68
2022/05/23 04:22:11;;;;;;;;;;;;;;;16.73;70.74;95127.59;10416063;27;98744;-68
2022/05/23 04:27:14;;;;;;;9.57;4.00;;;;;;;16.71;71.18;95142.81;10420746;27;96911;-68
2022/05/23 04:37:39;;;;;;;9.23;4.30;;;;;;;16.69;70.64;95137.75;10406878;27;98157;-68
2022/05/23 04:42:42;;;;;;;10.32;4.97;;;;;;;16.89;69.98;95127.09;10412183;27;96868;-68
2022/05/23 04:53:08;;;;;;;7.18;3.72;;;;;;;17.22;68.99;95128.66;10410605;27;96917;-68
2022/05/23 04:58:12;;;;;;;8.77;4.03;;;;;;;17.37;68.49;95125.72;10418639;28;97238;-68
2022/05/23 05:03:17;;;;;;;10.83;5.33;;;;;;;17.50;68.50;95130.03;10411180;27;96830;-68
2022/05/23 05:08:20;;;;;;;12.50;6.20;;;;;;;17.68;68.46;95129.25;10410193;27;99840;-68
2022/05/23 05:13:24;;;;;;;10.27;5.28;;;;;;;17.67;68.59;95128.44;10418059;27;99216;-68
2022/05/23 05:18:29;;;;;;;13.05;5.65;;;;;;;17.64;68.84;95128.06;10408510;27;97303;-68
2022/05/23 05:23:31;;;;;;;;;;;;;;;17.59;68.92;95131.38;10408604;27;98264;-68
2022/05/23 05:28:34;;;;;;;11.35;5.03;;;;;;;17.68;68.65;95145.91;10410868;27;98502;-68
2022/05/23 05:33:42;;;;;;;10.25;4.80;;;;;;;17.88;68.51;95139.63;10411118;27;96967;-68
2022/05/23 05:38:50;;;;;;;7.35;4.53;;;;;;;18.11;68.55;95138.97;10401040;27;97728;-69
2022/05/23 05:43:58;;;;;;;11.18;5.63;;;;;;;18.43;68.26;95158.09;10412457;27;97147;-68
2022/05/23 05:49:06;;;;;;;13.80;5.97;;;;;;;18.73;67.38;95146.69;10419532;27;99750;-68
2022/05/23 05:54:13;;;;;;;15.98;5.28;;;;;;;18.87;67.74;95150.78;10412592;27;97213;-68
2022/05/23 05:59:16;;;;;;;12.48;5.50;;;;;;;19.03;67.58;95145.88;10413443;27;96806;-68
2022/05/23 06:04:21;;;;;;;7.97;5.27;;;;;;;19.20;67.54;95152.13;10428656;27;97271;-68
2022/05/23 06:14:44;;;;;;;9.43;5.78;;;;;;;19.68;67.74;95150.31;10415155;27;97740;-68
2022/05/23 06:19:49;;;;;;;10.85;5.38;;;;;;;20.02;67.04;95141.75;10411197;27;98012;-68
2022/05/23 06:24:51;;;;;;;;;;;;;;;20.31;66.55;95126.69;10415044;27;96767;-68
2022/05/23 06:29:55;;;;;;;13.77;5.93;;;;;;;20.50;66.07;95132.63;10409123;27;97143;-68
2022/05/23 06:34:59;;;;;;;10.70;6.45;;;;;;;20.71;67.29;95123.97;10406318;27;98474;-68
2022/05/23 06:40:11;;;;;;;10.60;5.57;;;;;;;20.99;66.46;95109.09;10416015;28;96974;-68
2022/05/23 06:45:14;;;;;;;11.57;6.03;;;;;;;21.06;65.76;95138.94;10414042;27;96808;-68
2022/05/23 06:50:18;;;;;;;13.25;5.88;;;;;;;21.14;65.25;95121.81;10417140;28;96740;-68
2022/05/23 06:55:21;;;;;;;18.45;6.53;;;;;;;20.97;65.59;95127.09;10402642;27;96954;-68
2022/05/23 07:00:24;;;;;;;13.02;6.45;;;;;;;20.83;66.59;95131.13;10417493;27;97171;-69
2022/05/23 07:16:11;;;;;;;13.20;6.90;;;;;;;20.99;66.51;95105.63;10425304;27;99533;-68
2022/05/23 07:21:16;;;;;;;22.00;8.90;;;;;;;20.89;68.09;95093.81;10400422;28;96970;-68
2022/05/23 07:26:19;;;;;;;12.95;7.07;;;;;;;20.74;68.51;95080.28;10400178;28;101739;-68
2022/05/23 07:31:23;;;;;;;9.27;6.40;;;;;;;20.70;69.34;95090.53;10392408;27;96935;-68
2022/05/23 07:36:27;;;;;;;14.80;7.13;;;;;;;21.02;69.92;95079.41;10398327;28;97038;-68
2022/05/23 07:41:32;;;;;;;11.18;7.18;;;;;;;21.46;68.98;95071.53;10400470;28;96913;-68
2022/05/23 07:46:35;;;;;;;10.80;6.75;;;;;;;21.92;67.54;95073.22;10394207;28;96729;-68
2022/05/23 07:51:39;;;;;;;9.40;6.53;;;;;;;22.13;66.41;95069.75;10397025;28;96925;-68
2022/05/23 08:02:03;;;;;;;13.52;6.90;;;;;;;22.19;67.00;95036.03;10396906;27;96906;-68
2022/05/23 08:07:09;;;;;;;12.10;7.00;;;;;;;22.16;66.30;95047.97;10392405;28;96981;-68
2022/05/23 08:12:16;;;;;;;12.93;6.57;;;;;;;22.07;66.40;95060.09;10398044;28;96743;-68
2022/05/23 08:17:19;;;;;;;10.10;6.80;;;;;;;22.35;66.28;95067.06;10398178;28;96907;-68
2022/05/23 08:22:26;;;;;;;10.38;6.95;;;;;;;22.67;65.06;95058.34;10390860;27;96897;-68
2022/05/23 08:27:30;;;;;;;13.02;6.05;;;;;;;23.02;63.93;95053.56;10396989;28;96786;-68
2022/05/23 08:32:33;;;;;;;9.07;5.72;;;;;;;23.25;63.17;95039.06;10398487;28;97134;-68
2022/05/23 08:37:37;;;;;;;9.80;5.32;;;;;;;23.45;61.94;95017.13;10392637;28;97792;-68
2022/05/23 08:42:55;;;;;;;7.90;5.65;;;;;;;23.55;59.54;95015.28;10395026;28;96824;-68
2022/05/23 08:48:13;;;;;;;8.30;5.53;;;;;;;23.55;59.07;94998.47;10397335;28;98113;-68
2022/05/23 08:53:21;;;;;;;8.55;5.45;;;;;;;23.64;58.39;94991.59;10396824;28;97730;-68
2022/05/23 08:58:31;;;;;;;9.27;5.57;;;;;;;23.69;57.79;94994.28;10389922;28;97124;-68
2022/05/23 09:03:46;;;;;;;9.38;4.97;;;;;;;23.70;58.03;95006.53;10393311;28;96892;-68
2022/05/23 09:08:52;;;;;;;7.60;5.03;;;;;;;23.78;57.67;95001.78;10397216;27;96820;-68
2022/05/23 09:13:56;;;;;;;11.68;5.90;;;;;;;23.91;57.11;94963.94;10393513;28;96754;-68
2022/05/23 09:19:04;;;;;;;10.37;5.57;;;;;;;23.97;56.25;94980.75;10390929;28;96886;-68
2022/05/23 09:24:11;;;;;;;10.38;5.05;;;;;;;24.11;56.33;94982.72;10396119;28;96985;-68
2022/05/23 09:29:13;;;;;;;10.95;5.47;;;;;;;24.23;56.08;94984.34;10396109;28;96765;-68
2022/05/23 09:34:31;;;;;;;11.63;5.50;;;;;;;24.38;55.65;94965.66;10387916;28;96743;-68
2022/05/23 09:39:36;;;;;;;8.77;5.35;;;;;;;24.53;55.10;94946.19;10392062;27;96816;-68
2022/05/23 09:50:05;;;;;;;7.20;4.60;;;;;;;25.20;53.19;94967.47;10394335;28;97246;-68
2022/05/23 09:55:31;;;;;;;9.68;4.55;;;;;;;25.36;49.51;94949.56;10388620;27;97094;-68
2022/05/23 10:00:37;;;;;;;9.25;4.65;;;;;;;25.25;48.59;94949.59;10391866;28;96963;-67
2022/05/23 10:05:42;;;;;;;8.27;4.63;;;;;;;25.28;47.85;94948.22;10395506;28;96851;-67
2022/05/23 10:10:56;;;;;;;8.38;4.60;;;;;;;25.43;46.34;94944.72;10390685;28;97012;-69
2022/05/23 10:16:00;;;;;;;8.00;4.00;;;;;;;25.95;45.11;94943.41;10389670;28;97118;-68
2022/05/23 10:21:24;;;;;;;8.02;3.70;;;;;;;26.50;42.12;94954.06;10394997;28;97454;-67
2022/05/23 10:26:29;;;;;;;;;;;;;;;26.60;42.56;94947.81;10394613;28;97101;-68
2022/05/23 10:31:37;;;;;;;8.65;3.38;;;;;;;26.59;39.76;94948.91;10388553;28;96841;-68
2022/05/23 10:36:43;;;;;;;6.40;3.35;;;;;;;26.79;38.96;94942.56;10390359;28;96921;-68
2022/05/23 10:42:10;;;;;;;6.00;3.55;;;;;;;26.73;38.36;94939.13;10394194;27;97140;-69
2022/05/23 10:47:24;;;;;;;5.00;3.10;;;;;;;26.82;37.07;94915.19;10393637;28;96735;-68
2022/05/23 10:52:35;;;;;;;6.07;2.85;;;;;;;27.18;36.59;94914.03;10386719;28;99861;-68
2022/05/23 10:57:56;;;;;;;6.75;3.00;;;;;;;27.63;36.09;94914.63;10390403;28;96729;-68
2022/05/23 11:03:09;;;;;;;5.70;3.00;;;;;;;27.58;36.62;94915.47;10394094;28;96977;-68
2022/05/23 11:08:29;;;;;;;6.40;3.42;;;;;;;27.45;37.14;94911.59;10392904;28;97442;-68
2022/05/23 11:13:51;;;;;;;6.85;2.88;;;;;;;27.16;34.99;94889.41;10387410;27;96687;-68
2022/05/23 11:19:18;;;;;;;5.18;2.58;;;;;;;27.23;35.55;94881.81;10401304;28;99724;-68
2022/05/23 11:24:25;;;;;;;4.65;2.65;;;;;;;27.41;36.06;94872.25;10392197;28;96770;-68
2022/05/23 11:34:58;;;;;;;6.18;2.90;;;;;;;27.62;34.08;94883.53;10389299;28;96841;-68
2022/05/23 11:40:06;;;;;;;5.35;2.97;;;;;;;28.00;34.46;94884.31;10386841;28;96845;-68
2022/05/23 11:50:52;;;;;;;5.57;2.90;;;;;;;27.97;33.51;94889.47;10397121;28;96830;-68
2022/05/23 11:56:02;;;;;;;;;;;;;;;28.33;33.99;94891.66;10396483;27;96757;-68
2022/05/23 12:01:18;;;;;;;5.53;2.42;;;;;;;28.46;32.32;94915.06;10393138;27;100043;-68
2022/05/23 12:06:38;;;;;;;4.15;2.15;;;;;;;28.30;30.62;94927.13;10397803;28;96933;-68
2022/05/23 12:11:44;;;;;;;4.30;2.38;;;;;;;28.31;31.22;94931.41;10398469;28;96855;-68
2022/05/23 12:17:10;;;;;;;5.72;2.17;;;;;;;28.19;30.97;94932.63;10394468;28;97038;-68
2022/05/23 12:22:25;;;;;;;3.78;2.47;;;;;;;28.19;30.20;94923.78;10390833;28;96732;-68
2022/05/23 12:27:32;;;;;;;2.75;1.95;;;;;;;28.31;30.73;94932.22;10397006;28;97110;-68
2022/05/23 12:32:39;;;;;;;5.75;2.53;;;;;;;27.47;34.24;94935.44;10398033;28;96797;-68
2022/05/23 12:37:50;;;;;;;7.85;3.17;;;;;;;26.37;37.11;94952.81;10392863;28;96887;-68
2022/05/23 12:43:13;;;;;;;7.22;2.72;;;;;;;25.58;39.21;94950.03;10405966;27;96790;-68
2022/05/23 12:48:49;;;;;;;7.20;3.22;;;;;;;24.90;40.72;94918.38;10397282;27;97175;-68
2022/05/23 12:54:16;;;;;;;6.82;2.55;;;;;;;24.37;41.74;94910.69;10397810;28;96880;-68
2022/05/23 12:59:44;;;;;;;8.27;3.10;;;;;;;24.31;40.62;94919.75;10396887;27;96705;-68
2022/05/23 13:04:52;;;;;;;7.13;2.50;;;;;;;24.53;40.53;94902.69;10392416;28;99796;-68
2022/05/23 13:09:57;;;;;;;5.28;2.85;;;;;;;24.83;38.82;94886.63;10392433;28;96742;-68
2022/05/23 13:15:01;;;;;;;9.07;2.88;;;;;;;25.18;37.82;94898.28;10396062;28;97418;-68
2022/05/23 13:25:37;;;;;;;4.07;2.10;;;;;;;25.46;39.13;94888.03;10390676;28;96744;-68
2022/05/23 13:30:44;;;;;;;7.93;2.60;;;;;;;26.03;37.77;94895.75;10393588;28;97168;-68
2022/05/23 13:35:56;;;;;;;6.85;2.25;;;;;;;26.36;37.88;94902.22;10396334;28;96956;-68
2022/05/23 13:41:00;;;;;;;5.70;2.45;;;;;;;26.07;37.63;94912.81;10393384;27;96794;-68
2022/05/23 13:46:10;;;;;;;4.88;2.22;;;;;;;26.24;37.77;94918.63;10389787;28;98076;-68
2022/05/23 13:51:22;;;;;;;5.47;2.25;;;;;;;26.10;37.57;94915.78;10396323;28;96800;-68
2022/05/23 13:56:27;;;;;;;5.38;1.70;;;;;;;25.42;38.10;94943.88;10395537;28;97260;-69
2022/05/23 14:01:31;;;;;;;6.85;2.20;;;;;;;;;;10388697;28;96957;-68
2022/05/23 14:06:39;;;;;;;4.05;2.15;;;;;;;24.52;39.34;94963.25;10391502;28;96878;-68
2022/05/23 14:11:48;;;;;;;6.45;1.90;;;;;;;24.20;39.86;94950.19;10394459;28;96862;-68
2022/05/23 14:16:57;;;;;;;6.43;1.48;;;;;;;23.88;40.78;94943.13;10390777;28;96895;-69
2022/05/23 14:22:09;;;;;;;6.47;2.03;;;;;;;23.50;40.85;94953.16;10388638;28;102270;-68
2022/05/23 14:27:19;;;;;;;5.25;2.00;;;;;;;23.94;40.25;94976.78;10394463;28;96769;-68
2022/05/23 14:32:25;;;;;;;4.05;1.80;;;;;;;24.24;40.36;94978.72;10394289;27;96864;-68
2022/05/23 14:37:32;;;;;;;3.47;1.52;;;;;;;23.90;41.31;95031.72;10387518;28;97011;-68
2022/05/23 14:42:38;;;;;;;4.80;2.03;;;;;;;23.50;41.40;95009.94;10391271;28;96979;-68
2022/05/23 14:47:54;;;;;;;4.97;2.10;;;;;;;23.58;41.45;95024.63;10393505;28;96824;-68
2022/05/23 15:03:47;;;;;;;4.93;1.90;;;;;;;22.64;43.02;95018.91;10390528;28;96900;-68
2022/05/23 15:08:53;;;;;;;2.60;1.50;;;;;;;22.40;43.57;94995.28;10393790;28;96865;-68
2022/05/23 15:13:57;;;;;;;2.40;1.38;;;;;;;22.62;43.42;94997.88;10390334;28;97088;-68
2022/05/23 15:19:00;;;;;;;4.05;1.90;;;;;;;22.70;43.34;94978.00;10387393;28;102665;-68
2022/05/23 15:24:05;;;;;;;5.00;1.92;;;;;;;22.69;43.89;94976.38;10397486;27;96984;-68
2022/05/23 15:29:10;;;;;;;4.05;1.63;;;;;;;22.53;44.33;94985.31;10398090;28;96984;-68
2022/05/23 15:34:13;;;;;;;4.70;1.70;;;;;;;22.40;44.62;94967.84;10393225;28;96750;-68
2022/05/23 15:39:17;;;;;;;4.47;1.65;;;;;;;22.33;45.21;95009.81;10399888;28;97536;-68
2022/05/23 15:44:21;;;;;;;3.63;1.50;;;;;;;22.23;44.86;94973.28;10430477;27;98181;-68
2022/05/23 15:49:26;;;;;;;4.07;1.70;;;;;;;21.91;45.28;95023.75;10439091;27;98046;-68
2022/05/23 15:54:31;;;;;;;4.22;1.83;;;;;;;21.77;45.62;95013.50;10422980;28;96890;-68
2022/05/23 15:59:37;;;;;;;4.47;1.52;;;;;;;21.56;46.20;95027.56;10418468;27;97044;-68
2022/05/23 16:04:40;;;;;;;2.70;1.60;;;;;;;21.46;46.53;95023.72;10407677;28;96940;-68
2022/05/23 16:09:45;;;;;;;4.28;1.63;;;;;;;21.42;46.64;95027.91;10395498;28;96807;-68
2022/05/23 16:14:54;;;;;;;4.65;2.38;;;;;;;21.46;46.42;95010.44;10425282;27;97645;-68
2022/05/23 16:19:57;;;;;;;2.97;1.47;;;;;;;21.09;47.06;95034.91;10422251;27;96814;-68
2022/05/23 16:25:02;;;;;;;3.00;1.42;;;;;;;20.92;48.18;95028.81;10421441;28;101023;-68
2022/05/23 16:30:14;;;;;;;3.13;1.70;;;;;;;20.87;49.03;95021.56;10418623;27;96866;-68
2022/05/23 16:40:54;;;;;;;3.55;1.60;;;;;;;20.63;50.42;95020.88;10416040;27;97885;-68
2022/05/23 16:45:58;;;;;;;2.97;1.70;;;;;;;20.29;51.67;95004.94;10421483;27;97488;-68
2022/05/23 16:51:03;;;;;;;5.05;2.15;;;;;;;20.06;53.52;95032.38;10412627;27;98294;-69
2022/05/23 16:56:08;;;;;;;5.20;2.95;;;;;;;19.98;53.56;95053.94;10414465;27;96978;-67
2022/05/23 17:01:11;;;;;;;5.28;2.70;;;;;;;19.78;55.77;95033.13;10418925;27;96939;-68
2022/05/23 17:06:14;;;;;;;4.05;2.15;;;;;;;19.44;56.59;95051.50;10417123;27;96722;-68
2022/05/23 17:11:19;;;;;;;4.13;1.88;;;;;;;19.35;57.00;95052.88;10405666;27;96906;-69
2022/05/23 17:16:44;;;;;;;3.55;1.77;;;;;;;19.49;56.68;95075.47;10411957;27;97275;-69
2022/05/23 17:21:47;;;;;;;3.15;1.90;;;;;;;19.26;57.51;95092.13;10413557;27;97650;-68
2022/05/23 17:26:52;;;;;;;5.45;1.92;;;;;;;19.24;58.08;95068.56;10412496;27;97728;-68
2022/05/23 17:31:55;;;;;;;;;;;;;;;19.31;56.91;95084.31;10398268;27;97239;-68
2022/05/23 17:36:58;;;;;;;4.15;1.70;;;;;;;19.40;58.33;95072.34;10412201;27;96850;-71
2022/05/23 17:42:04;;;;;;;4.83;1.70;;;;;;;19.55;58.77;95063.13;10416065;27;97369;-68
2022/05/23 17:47:08;;;;;;;3.22;1.73;;;;;;;19.58;59.37;95062.66;10413812;27;97827;-68
2022/05/23 17:52:11;;;;;;;3.42;1.73;;;;;;;19.38;60.40;95078.91;10416233;27;96860;-68
2022/05/23 17:57:21;;;;;;;3.55;1.70;;;;;;;19.10;62.78;95120.09;10408045;27;98147;-69
2022/05/23 18:02:23;;;;;;;;;;;;;;;18.99;61.55;95119.06;10413375;27;97057;-68
2022/05/23 18:07:26;;;;;;;5.75;1.88;;;;;;;18.83;63.23;95127.63;10413584;27;98038;-68
2022/05/23 18:12:30;;;;;;;4.53;1.90;;;;;;;18.69;63.76;95119.09;10418773;27;97979;-69
2022/05/23 18:23:15;;;;;;;3.17;1.90;;;;;;;18.60;63.49;95120.44;10418644;27;96762;-68
2022/05/23 18:28:22;;;;;;;4.93;2.20;;;;;;;18.45;64.24;95131.44;10419211;27;96845;-68
2022/05/23 18:33:25;;;;;;;5.90;1.90;;;;;;;18.35;64.57;95120.59;10420767;27;96857;-68
2022/05/23 18:38:27;;;;;;;2.83;1.75;;;;;;;18.31;64.99;95115.72;10420051;27;97837;-68
2022/05/23 18:43:32;;;;;;;3.90;2.22;;;;;;;18.34;65.05;95127.69;10422404;27;96938;-68
2022/05/23 18:53:55;;;;;;;3.13;2.00;;;;;;;18.16;65.74;95136.47;10423172;27;96778;-68
2022/05/23 18:59:03;;;;;;;2.88;2.05;;;;;;;17.95;66.19;95156.22;10424964;27;96797;-68
2022/05/23 19:04:14;;;;;;;4.97;2.58;;;;;;;17.95;66.37;95140.38;10429221;27;97562;-68
2022/05/23 19:09:37;;;;;;;4.43;2.08;;;;;;;18.02;66.50;95146.38;10426396;27;96748;-68
2022/05/23 19:14:41;;;;;;;3.83;2.35;;;;;;;18.02;66.54;95150.88;10423636;27;98280;-68
2022/05/23 19:19:45;;;;;;;5.15;2.10;;;;;;;17.96;67.07;95163.13;10425464;27;96887;-68
2022/05/23 19:24:49;;;;;;;3.77;1.93;;;;;;;17.98;67.03;95178.75;10422280;27;101642;-68
2022/05/23 19:29:54;;;;;;;4.30;2.13;;;;;;;17.79;67.31;95188.44;10412849;27;99467;-68
2022/05/23 19:34:57;;;;;;;;;;;;;;;17.60;67.30;95199.00;10412386;27;99033;-68
2022/05/23 19:40:00;;;;;;;4.75;1.92;;;;;;;17.65;67.25;95215.00;10420260;27;98992;-68
2022/05/23 19:45:04;;;;;;;6.97;2.40;;;;;;;17.66;68.15;95221.09;10414523;27;97038;-68
2022/05/23 19:50:09;;;;;;;2.60;1.00;;;;;;;17.67;63.44;95218.25;10412132;27;98725;-68
2022/05/23 19:55:12;;;;;;;2.28;0.88;;;;;;;17.72;61.73;95226.31;10415998;27;97516;-68
2022/05/23 20:00:17;;;;;;;2.38;0.80;;;;;;;17.82;60.24;95212.63;10414727;28;96861;-69
2022/05/23 20:10:41;;;;;;;2.72;0.95;;;;;;;17.97;58.40;95196.44;10400143;27;99422;-68
2022/05/23 20:15:51;;;;;;;4.07;1.27;;;;;;;17.99;57.66;95193.56;10412317;27;97059;-68
2022/05/23 20:20:56;;;;;;;4.97;1.35;;;;;;;18.02;56.44;95209.81;10411180;27;96954;-68
2022/05/23 20:25:59;;;;;;;3.72;1.23;;;;;;;18.06;55.78;95220.75;10421211;27;98875;-68
2022/05/23 20:31:04;;;;;;;1.67;0.83;;;;;;;18.13;54.94;95224.13;10411327;27;98634;-68
2022/05/23 20:36:08;;;;;;;3.33;1.10;;;;;;;18.12;55.43;95236.53;10408440;27;98534;-68
2022/05/23 20:41:11;;;;;;;2.90;1.27;;;;;;;18.03;55.75;95243.13;10410971;27;97183;-68
2022/05/23 20:46:32;;;;;;;3.25;1.30;;;;;;;18.03;56.36;95231.75;10410730;27;99771;-69
2022/05/23 20:51:36;;;;;;;2.97;1.30;;;;;;;17.93;56.87;95233.06;10411197;27;97312;-68
2022/05/23 20:56:39;;;;;;;4.33;2.17;;;;;;;17.90;57.27;95243.25;10413683;27;97380;-68
2022/05/23 21:01:57;;;;;;;6.93;2.67;;;;;;;17.87;56.85;95228.66;10414986;27;97347;-68
2022/05/23 21:07:02;;;;;;;7.47;1.67;;;;;;;17.81;57.16;95239.25;10412401;28;96712;-68
2022/05/23 21:12:06;;;;;;;4.30;2.47;;;;;;;17.80;57.97;95237.63;10411004;27;98193;-69
2022/05/23 21:17:13;;;;;;;3.43;1.27;;;;;;;17.82;58.00;95217.91;10404365;27;97611;-69
2022/05/23 21:22:18;;;;;;;2.63;1.15;;;;;;;17.79;58.02;95226.28;10410927;27;98587;-69
2022/05/23 21:27:21;;;;;;;4.75;1.85;;;;;;;17.79;58.04;95226.28;10408471;27;97906;-68
2022/05/23 21:32:26;;;;;;;4.07;1.80;;;;;;;17.76;58.32;95235.41;10407390;27;98996;-69
2022/05/23 21:37:29;;;;;;;4.13;1.25;;;;;;;17.76;58.47;95232.78;10412258;27;97174;-69
2022/05/23 21:47:59;;;;;;;3.65;1.63;;;;;;;17.68;59.13;95219.88;10277426;28;97971;-69
2022/05/23 21:53:03;;;;;;;4.95;1.50;;;;;;;17.60;59.91;95225.41;10279737;28;98178;-68
2022/05/23 21:58:07;;;;;;;2.85;1.50;;;;;;;17.55;59.48;95233.19;10284628;28;98581;-69
2022/05/23 22:03:11;;;;;;;3.53;1.45;;;;;;;17.46;60.11;95218.63;10290510;28;97003;-68
2022/05/23 22:08:14;;;;;;;3.17;1.42;;;;;;;17.45;60.26;95215.16;10281702;28;98658;-69
2022/05/23 22:13:17;;;;;;;3.55;1.38;;;;;;;17.39;60.61;95223.97;10283486;28;97130;-69
2022/05/23 22:18:21;;;;;;;1.90;1.10;;;;;;;17.40;61.00;95215.00;10281777;28;100439;-68
2022/05/23 22:23:25;;;;;;;2.40;1.15;;;;;;;17.42;60.51;95212.16;10352275;27;98487;-69
2022/05/23 22:28:27;;;;;;;2.78;1.25;;;;;;;17.41;60.21;95207.91;10410718;27;100344;-69
2022/05/23 22:33:32;;;;;;;2.75;1.33;;;;;;;17.49;59.62;95212.91;10410437;27;99081;-68
2022/05/23 22:38:36;;;;;;;3.20;1.15;;;;;;;17.44;59.80;95218.03;10408942;27;99011;-69
2022/05/23 22:43:39;;;;;;;1.60;1.08;;;;;;;17.28;60.52;95206.97;10408580;27;98564;-68
2022/05/23 22:48:44;;;;;;;3.10;1.30;;;;;;;17.25;61.01;95215.34;10409428;27;102731;-69
2022/05/23 22:53:46;;;;;;;3.17;1.27;;;;;;;17.21;61.12;95222.06;10409578;27;102320;-69
2022/05/23 22:58:50;;;;;;;3.97;1.35;;;;;;;17.21;61.24;95229.97;10406022;27;98104;-68
2022/05/23 23:09:15;;;;;;;3.78;1.55;;;;;;;17.17;61.44;95226.16;10407623;27;96711;-68
2022/05/23 23:14:17;;;;;;;3.15;1.20;;;;;;;17.16;61.56;95211.31;10407012;27;97668;-70
2022/05/23 23:19:22;;;;;;;2.13;1.20;;;;;;;16.88;62.48;95230.97;10408015;27;97695;-68
2022/05/23 23:24:24;;;;;;;2.55;1.38;;;;;;;16.74;62.50;95224.16;10414807;27;99640;-68
2022/05/23 23:29:28;;;;;;;3.55;1.17;;;;;;;16.78;62.66;95228.81;10414520;27;99204;-69
2022/05/23 23:39:52;;;;;;;2.83;1.30;;;;;;;16.80;63.08;95221.50;10405176;27;98574;-69
2022/05/23 23:44:55;;;;;;;2.78;1.70;;;;;;;16.79;63.36;95211.97;10410870;27;97784;-69
2022/05/23 23:49:59;;;;;;;4.10;1.48;;;;;;;16.72;63.25;95226.19;10417159;27;97154;-68
2022/05/23 23:55:02;;;;;;;3.05;1.60;;;;;;;16.55;64.04;95210.84;10414977;27;98454;-68
